Main page
METAR-TAF:

METAR-TAF

Airports :

Goa International Airport

Panaji, India

latitude: 15-22-51N, longitude: 073-49-53E, elevation: 56 m

Current weather observation

The report was made 2 hours and 1 minutes ago, at 04:00 UTC
Wind 6 kt from the East
Temperature 28°C
Humidity 62%
Pressure 1014 hPa
Visibility: 6000 m
Scattered clouds at a height of 22000 ft

METAR: VOGO 150400Z 09006KT 6000 SCT220 28/20 Q1014 NOSIG

Time: 11:31 (06:01 UTC)

Forecast

The report was made 9 hours and 1 minutes ago, at 21:00 UTC
Forecast valid from 15 at 00 UTC to 15 at 09 UTC
Wind 8 kt from the East/Northeast
Visibility: 4500 m
Few clouds at a height of 2000 ft
Scattered clouds at a height of 22000 ft
Temporary
from 15 at 00 UTC to 15 at 03 UTC
Visibility: 3000 m
mist
Becoming
from 15 at 04 UTC to 15 at 06 UTC
Visibility: 6000 m
Becoming
from 15 at 06 UTC to 15 at 08 UTC
Wind 8 kt from the Southwest

TAF: VOGO 142100Z 1500/1509 06008KT 4500 BR/HZ FEW020 SCT220 TEMPO 1500/1503 3000 BR BECMG 1504/1506 6000 BECMG 1506/1508 23008KT

Weather observations and forecasts of more than 4000 airports (METAR and TAF reports).

The available stations are represented by yellow and red dots on the map.

Hover mouse over dot to see the name of the station.

Then click to see weather observations and forecasts.

To change the map : click on the green buttons with a black cross to zoom in, on the green button with a dash to zoom out, or on the green arrows for adjacent maps.


METAR-TAF: